KSFOKLVS

Guest
Details From KSFO - San Francisco Intl
To KLVS - Las Vegas Muni
Flight Number -
Tags Decoded
Created
Modified
Stats Distance 838 nm / 1,552 km
Max Altitude 0 ft / 0 m
Waypoints 2
Social Downloads 0
Likes 0
Share VATSIM

Download

Looking for another format? Having issues loading an existing format? Contact us
Advertisement - Login to hide

Notes

Decoded

Route

KSFO KLVS

ID Type Via Altitude Latitude Longitude Leg Dist Tot Dist Heading (true) Name
O KSFO APT - 0 ft / 0 m 37.60898˚ -122.38220˚ - 0 nm - -
O KLVS APT - 0 ft / 0 m 35.64826˚ -105.14742˚ 837 nm 837 nm 93° / 103° -

Altitude Profile

Advertisement - Login to hide

Weather


0- 5 10 15 20 25 30 35+ Temperature / ° C

Clouds and Precipitation
Forecast for 2017-12-12 12:00 UTC. Updated an hour ago

Ground ~20,000 ft ~40,000 ft Winds

KSFO

Details ICAO KSFO (SFO)
Name San Francisco Intl
Region United States
Timezone America/Los_Angeles (UTC-8.0)
Stats Elevation 13 ft / 4 m (AMSL)
Location 37.618674° -122.375008°
Runways 4
Magnetic Variation 13.464° E

METAR

KSFO 121156Z 00000KT 10SM SCT200 06/03 A3031 RMK AO2 SLP264 T00610028 10128 20061 58005

Decode

TAF

KSFO 121123Z 1212/1318 10004KT P6SM SCT200 FM122000 VRB04KT P6SM FEW200 FM130100 30006KT P6SM FEW200 FM130400 31004KT P6SM SKC FM131400 VRB03KT P6SM SKC

Decode

Departure Runways

ID Width Length Bearing (true) Bearing (mag) Surface Threshold Offset Overrun Length
01L 200 ft / 61 m 7,509 ft / 2,289 m 27.70° 14.24° Asphalt 492 ft / 150 m 0 ft / 0 m
01R 200 ft / 61 m 8,907 ft / 2,715 m 27.71° 14.25° Asphalt 492 ft / 150 m 0 ft / 0 m
10L 200 ft / 61 m 11,856 ft / 3,614 m 117.89° 104.43° Asphalt 0 ft / 0 m 860 ft / 262 m
10R 200 ft / 61 m 10,589 ft / 3,228 m 117.90° 104.44° Asphalt 0 ft / 0 m 0 ft / 0 m
19L 200 ft / 61 m 8,907 ft / 2,715 m 207.72° 194.26° Asphalt 0 ft / 0 m 0 ft / 0 m
19R 200 ft / 61 m 7,509 ft / 2,289 m 207.70° 194.24° Asphalt 0 ft / 0 m 0 ft / 0 m
28L 200 ft / 61 m 10,589 ft / 3,228 m 297.92° 284.46° Asphalt 0 ft / 0 m 341 ft / 104 m
28R 200 ft / 61 m 11,856 ft / 3,614 m 297.91° 284.45° Asphalt 0 ft / 0 m 341 ft / 104 m

KLVS

Details ICAO KLVS (LVS)
Name LAS VEGAS MUNI
Region United States
Timezone America/Denver (UTC-7.0)
Stats Elevation 6,877 ft / 2,096 m (AMSL)
Location 35.654149° -105.142439°
Runways 2
Magnetic Variation 7.932° E

METAR

KLVS 121153Z AUTO 16005KT 10SM CLR M04/M16 A3049 RMK AO2 SLP318 T10391156 10017 21044 56006

Decode

TAF

KLVS 121124Z 1212/1312 20006KT P6SM SKC FM121800 19011KT P6SM SKC FM130300 32006KT P6SM SKC

Decode

Destination Runways

ID Width Length Bearing (true) Bearing (mag) Surface Threshold Offset Overrun Length
02 75 ft / 23 m 5,007 ft / 1,526 m 34.79° 26.86° Asphalt 0 ft / 0 m 0 ft / 0 m
14 75 ft / 23 m 8,208 ft / 2,502 m 151.74° 143.81° Asphalt 0 ft / 0 m 0 ft / 0 m
20 75 ft / 23 m 5,007 ft / 1,526 m 214.79° 206.86° Asphalt 0 ft / 0 m 0 ft / 0 m
32 75 ft / 23 m 8,208 ft / 2,502 m 331.75° 323.82° Asphalt 0 ft / 0 m 0 ft / 0 m

Popular Alternatives